sensor_id;sensor_type;location;lat;lon;timestamp;P1;durP1;ratioP1;P2;durP2;ratioP2
26277;SDS011;14000;52.056;8.510;2023-04-15T00:00:15;20.10;;;9.90;;
26277;SDS011;14000;52.056;8.510;2023-04-15T00:02:41;15.50;;;9.03;;
26277;SDS011;14000;52.056;8.510;2023-04-15T00:05:08;17.43;;;9.63;;
26277;SDS011;14000;52.056;8.510;2023-04-15T00:07:34;17.43;;;9.47;;
26277;SDS011;14000;52.056;8.510;2023-04-15T00:10:00;16.80;;;9.00;;
26277;SDS011;14000;52.056;8.510;2023-04-15T00:12:26;18.47;;;9.93;;
26277;SDS011;14000;52.056;8.510;2023-04-15T00:14:52;23.30;;;10.53;;
26277;SDS011;14000;52.056;8.510;2023-04-15T00:17:18;19.83;;;10.47;;
26277;SDS011;14000;52.056;8.510;2023-04-15T00:19:45;20.03;;;10.60;;
26277;SDS011;14000;52.056;8.510;2023-04-15T00:22:11;17.57;;;9.97;;
26277;SDS011;14000;52.056;8.510;2023-04-15T00:24:37;17.27;;;9.57;;
26277;SDS011;14000;52.056;8.510;2023-04-15T00:27:03;18.77;;;10.23;;
26277;SDS011;14000;52.056;8.510;2023-04-15T00:29:28;18.63;;;10.57;;
26277;SDS011;14000;52.056;8.510;2023-04-15T00:31:55;20.43;;;10.37;;
26277;SDS011;14000;52.056;8.510;2023-04-15T00:34:23;20.43;;;10.73;;
26277;SDS011;14000;52.056;8.510;2023-04-15T00:36:49;19.03;;;10.20;;
26277;SDS011;14000;52.056;8.510;2023-04-15T00:39:16;18.07;;;10.23;;
26277;SDS011;14000;52.056;8.510;2023-04-15T00:41:42;16.13;;;9.97;;
26277;SDS011;14000;52.056;8.510;2023-04-15T00:44:09;21.13;;;10.77;;
26277;SDS011;14000;52.056;8.510;2023-04-15T00:46:35;18.90;;;11.13;;
26277;SDS011;14000;52.056;8.510;2023-04-15T00:49:03;23.93;;;10.50;;
26277;SDS011;14000;52.056;8.510;2023-04-15T00:51:30;18.27;;;9.67;;
26277;SDS011;14000;52.056;8.510;2023-04-15T00:54:01;18.07;;;8.97;;
26277;SDS011;14000;52.056;8.510;2023-04-15T00:56:28;21.77;;;10.90;;
26277;SDS011;14000;52.056;8.510;2023-04-15T00:58:54;21.40;;;11.83;;
26277;SDS011;14000;52.056;8.510;2023-04-15T01:01:20;20.10;;;11.47;;
26277;SDS011;14000;52.056;8.510;2023-04-15T01:03:49;21.80;;;11.00;;
26277;SDS011;14000;52.056;8.510;2023-04-15T01:06:16;22.50;;;11.67;;
26277;SDS011;14000;52.056;8.510;2023-04-15T01:08:42;17.93;;;10.70;;
26277;SDS011;14000;52.056;8.510;2023-04-15T01:11:09;17.90;;;10.60;;
26277;SDS011;14000;52.056;8.510;2023-04-15T01:13:37;19.47;;;11.00;;
26277;SDS011;14000;52.056;8.510;2023-04-15T01:16:03;19.47;;;10.10;;
26277;SDS011;14000;52.056;8.510;2023-04-15T01:18:29;19.53;;;11.43;;
26277;SDS011;14000;52.056;8.510;2023-04-15T01:20:55;20.27;;;10.23;;
26277;SDS011;14000;52.056;8.510;2023-04-15T01:23:21;19.27;;;10.97;;
26277;SDS011;14000;52.056;8.510;2023-04-15T01:25:48;18.70;;;10.40;;
26277;SDS011;14000;52.056;8.510;2023-04-15T01:28:14;20.90;;;11.37;;
26277;SDS011;14000;52.056;8.510;2023-04-15T01:30:40;18.87;;;10.67;;
26277;SDS011;14000;52.056;8.510;2023-04-15T01:33:06;18.27;;;9.83;;
26277;SDS011;14000;52.056;8.510;2023-04-15T01:38:54;17.93;;;9.60;;
26277;SDS011;14000;52.056;8.510;2023-04-15T01:41:24;19.87;;;11.20;;
26277;SDS011;14000;52.056;8.510;2023-04-15T01:43:52;19.60;;;11.23;;
26277;SDS011;14000;52.056;8.510;2023-04-15T01:46:18;18.93;;;10.50;;
26277;SDS011;14000;52.056;8.510;2023-04-15T01:48:45;20.60;;;11.10;;
26277;SDS011;14000;52.056;8.510;2023-04-15T01:51:11;18.13;;;10.60;;
26277;SDS011;14000;52.056;8.510;2023-04-15T01:53:37;17.73;;;10.23;;
26277;SDS011;14000;52.056;8.510;2023-04-15T01:56:02;19.03;;;10.70;;
26277;SDS011;14000;52.056;8.510;2023-04-15T01:58:28;18.50;;;10.17;;
26277;SDS011;14000;52.056;8.510;2023-04-15T02:00:54;18.30;;;10.87;;
26277;SDS011;14000;52.056;8.510;2023-04-15T02:03:21;18.73;;;9.83;;
26277;SDS011;14000;52.056;8.510;2023-04-15T02:05:47;20.93;;;11.00;;
26277;SDS011;14000;52.056;8.510;2023-04-15T02:08:13;18.43;;;10.27;;
26277;SDS011;14000;52.056;8.510;2023-04-15T02:10:38;18.07;;;10.03;;
26277;SDS011;14000;52.056;8.510;2023-04-15T02:13:04;18.47;;;10.53;;
26277;SDS011;14000;52.056;8.510;2023-04-15T02:15:30;20.13;;;11.20;;
26277;SDS011;14000;52.056;8.510;2023-04-15T02:17:55;20.13;;;11.83;;
26277;SDS011;14000;52.056;8.510;2023-04-15T02:20:21;20.03;;;11.07;;
26277;SDS011;14000;52.056;8.510;2023-04-15T02:22:47;21.00;;;12.07;;
26277;SDS011;14000;52.056;8.510;2023-04-15T02:25:13;20.37;;;11.60;;
26277;SDS011;14000;52.056;8.510;2023-04-15T02:27:41;21.33;;;12.07;;
26277;SDS011;14000;52.056;8.510;2023-04-15T02:30:07;21.03;;;11.57;;
26277;SDS011;14000;52.056;8.510;2023-04-15T02:32:33;21.30;;;11.43;;
26277;SDS011;14000;52.056;8.510;2023-04-15T02:35:02;22.37;;;12.63;;
26277;SDS011;14000;52.056;8.510;2023-04-15T02:37:29;22.63;;;12.43;;
26277;SDS011;14000;52.056;8.510;2023-04-15T02:39:56;21.67;;;12.37;;
26277;SDS011;14000;52.056;8.510;2023-04-15T02:42:21;22.47;;;13.33;;
26277;SDS011;14000;52.056;8.510;2023-04-15T02:44:47;23.20;;;13.83;;
26277;SDS011;14000;52.056;8.510;2023-04-15T02:47:12;25.10;;;14.17;;
26277;SDS011;14000;52.056;8.510;2023-04-15T02:49:39;25.37;;;13.27;;
26277;SDS011;14000;52.056;8.510;2023-04-15T02:52:05;21.63;;;12.87;;
26277;SDS011;14000;52.056;8.510;2023-04-15T02:54:31;25.77;;;13.63;;
26277;SDS011;14000;52.056;8.510;2023-04-15T02:56:58;22.93;;;13.57;;
26277;SDS011;14000;52.056;8.510;2023-04-15T02:59:24;22.80;;;14.53;;
26277;SDS011;14000;52.056;8.510;2023-04-15T03:01:49;25.73;;;14.50;;
26277;SDS011;14000;52.056;8.510;2023-04-15T03:04:15;22.47;;;13.87;;
26277;SDS011;14000;52.056;8.510;2023-04-15T03:06:41;22.63;;;13.97;;
26277;SDS011;14000;52.056;8.510;2023-04-15T03:09:07;23.10;;;13.23;;
26277;SDS011;14000;52.056;8.510;2023-04-15T03:11:32;22.47;;;13.47;;
26277;SDS011;14000;52.056;8.510;2023-04-15T03:14:04;22.57;;;13.53;;
26277;SDS011;14000;52.056;8.510;2023-04-15T03:16:30;21.43;;;12.90;;
26277;SDS011;14000;52.056;8.510;2023-04-15T03:18:55;21.10;;;12.70;;
26277;SDS011;14000;52.056;8.510;2023-04-15T03:21:21;22.67;;;13.63;;
26277;SDS011;14000;52.056;8.510;2023-04-15T03:23:47;22.70;;;13.37;;
26277;SDS011;14000;52.056;8.510;2023-04-15T03:26:26;22.27;;;13.57;;
26277;SDS011;14000;52.056;8.510;2023-04-15T03:28:53;22.13;;;13.67;;
26277;SDS011;14000;52.056;8.510;2023-04-15T03:31:19;23.03;;;13.33;;
26277;SDS011;14000;52.056;8.510;2023-04-15T03:33:45;24.03;;;15.30;;
26277;SDS011;14000;52.056;8.510;2023-04-15T03:36:10;25.90;;;15.40;;
26277;SDS011;14000;52.056;8.510;2023-04-15T03:38:36;25.20;;;14.80;;
26277;SDS011;14000;52.056;8.510;2023-04-15T03:41:01;25.60;;;15.07;;
26277;SDS011;14000;52.056;8.510;2023-04-15T03:43:27;23.23;;;14.47;;
26277;SDS011;14000;52.056;8.510;2023-04-15T03:45:53;24.47;;;14.83;;
26277;SDS011;14000;52.056;8.510;2023-04-15T03:48:18;22.97;;;14.33;;
26277;SDS011;14000;52.056;8.510;2023-04-15T03:50:45;26.60;;;15.50;;
26277;SDS011;14000;52.056;8.510;2023-04-15T03:53:11;25.20;;;14.97;;
26277;SDS011;14000;52.056;8.510;2023-04-15T03:55:37;26.13;;;15.17;;
26277;SDS011;14000;52.056;8.510;2023-04-15T03:58:02;26.00;;;16.03;;
26277;SDS011;14000;52.056;8.510;2023-04-15T04:00:28;24.30;;;15.90;;
26277;SDS011;14000;52.056;8.510;2023-04-15T04:02:54;24.63;;;15.20;;
26277;SDS011;14000;52.056;8.510;2023-04-15T04:05:20;26.73;;;16.80;;
26277;SDS011;14000;52.056;8.510;2023-04-15T04:07:46;27.80;;;16.33;;
26277;SDS011;14000;52.056;8.510;2023-04-15T04:10:11;26.07;;;16.50;;
26277;SDS011;14000;52.056;8.510;2023-04-15T04:12:37;25.33;;;15.80;;
26277;SDS011;14000;52.056;8.510;2023-04-15T04:15:03;26.23;;;16.00;;
26277;SDS011;14000;52.056;8.510;2023-04-15T04:17:29;24.90;;;14.03;;
26277;SDS011;14000;52.056;8.510;2023-04-15T04:19:55;25.83;;;15.90;;
26277;SDS011;14000;52.056;8.510;2023-04-15T04:22:21;22.87;;;14.07;;
26277;SDS011;14000;52.056;8.510;2023-04-15T04:24:48;22.63;;;14.60;;
26277;SDS011;14000;52.056;8.510;2023-04-15T04:27:14;24.27;;;14.80;;
26277;SDS011;14000;52.056;8.510;2023-04-15T04:29:40;26.27;;;15.93;;
26277;SDS011;14000;52.056;8.510;2023-04-15T04:32:05;24.57;;;14.93;;
26277;SDS011;14000;52.056;8.510;2023-04-15T04:34:31;22.63;;;14.00;;
26277;SDS011;14000;52.056;8.510;2023-04-15T04:36:57;25.80;;;14.63;;
26277;SDS011;14000;52.056;8.510;2023-04-15T04:39:22;24.87;;;14.40;;
26277;SDS011;14000;52.056;8.510;2023-04-15T04:41:48;24.23;;;15.33;;
26277;SDS011;14000;52.056;8.510;2023-04-15T04:44:16;27.00;;;16.03;;
26277;SDS011;14000;52.056;8.510;2023-04-15T04:46:41;23.63;;;14.97;;
26277;SDS011;14000;52.056;8.510;2023-04-15T04:49:07;24.50;;;15.57;;
26277;SDS011;14000;52.056;8.510;2023-04-15T04:51:33;26.43;;;15.97;;
26277;SDS011;14000;52.056;8.510;2023-04-15T04:53:58;25.27;;;15.43;;
26277;SDS011;14000;52.056;8.510;2023-04-15T04:56:24;25.03;;;15.17;;
26277;SDS011;14000;52.056;8.510;2023-04-15T04:58:50;32.10;;;18.80;;
26277;SDS011;14000;52.056;8.510;2023-04-15T05:01:15;31.50;;;19.97;;
26277;SDS011;14000;52.056;8.510;2023-04-15T05:03:41;29.27;;;17.23;;
26277;SDS011;14000;52.056;8.510;2023-04-15T05:06:07;32.13;;;18.57;;
26277;SDS011;14000;52.056;8.510;2023-04-15T05:08:33;26.10;;;16.60;;
26277;SDS011;14000;52.056;8.510;2023-04-15T05:10:58;25.83;;;16.10;;
26277;SDS011;14000;52.056;8.510;2023-04-15T05:13:24;26.43;;;15.37;;
26277;SDS011;14000;52.056;8.510;2023-04-15T05:15:50;25.63;;;15.40;;
26277;SDS011;14000;52.056;8.510;2023-04-15T05:18:16;28.23;;;16.50;;
26277;SDS011;14000;52.056;8.510;2023-04-15T05:20:42;29.30;;;16.47;;
26277;SDS011;14000;52.056;8.510;2023-04-15T05:23:07;25.57;;;15.77;;
26277;SDS011;14000;52.056;8.510;2023-04-15T05:25:33;25.37;;;16.53;;
26277;SDS011;14000;52.056;8.510;2023-04-15T05:27:59;30.10;;;16.83;;
26277;SDS011;14000;52.056;8.510;2023-04-15T05:30:25;25.80;;;15.67;;
26277;SDS011;14000;52.056;8.510;2023-04-15T05:32:51;27.03;;;15.97;;
26277;SDS011;14000;52.056;8.510;2023-04-15T05:35:17;26.37;;;15.27;;
26277;SDS011;14000;52.056;8.510;2023-04-15T05:37:43;26.23;;;16.90;;
26277;SDS011;14000;52.056;8.510;2023-04-15T05:40:09;26.13;;;15.77;;
26277;SDS011;14000;52.056;8.510;2023-04-15T05:42:35;28.80;;;17.63;;
26277;SDS011;14000;52.056;8.510;2023-04-15T05:45:01;25.87;;;15.93;;
26277;SDS011;14000;52.056;8.510;2023-04-15T05:47:29;26.37;;;15.80;;
26277;SDS011;14000;52.056;8.510;2023-04-15T05:49:55;29.67;;;17.13;;
26277;SDS011;14000;52.056;8.510;2023-04-15T05:52:23;25.50;;;16.00;;
26277;SDS011;14000;52.056;8.510;2023-04-15T05:54:48;26.13;;;16.17;;
26277;SDS011;14000;52.056;8.510;2023-04-15T05:57:14;30.77;;;16.93;;
26277;SDS011;14000;52.056;8.510;2023-04-15T05:59:40;30.00;;;16.90;;
26277;SDS011;14000;52.056;8.510;2023-04-15T06:02:06;27.03;;;17.37;;
26277;SDS011;14000;52.056;8.510;2023-04-15T06:04:33;28.87;;;17.03;;
26277;SDS011;14000;52.056;8.510;2023-04-15T06:06:59;30.93;;;17.70;;
26277;SDS011;14000;52.056;8.510;2023-04-15T06:09:25;34.30;;;20.57;;
26277;SDS011;14000;52.056;8.510;2023-04-15T06:11:51;31.50;;;17.73;;
26277;SDS011;14000;52.056;8.510;2023-04-15T06:14:17;30.30;;;17.43;;
26277;SDS011;14000;52.056;8.510;2023-04-15T06:16:43;34.40;;;18.73;;
26277;SDS011;14000;52.056;8.510;2023-04-15T06:19:08;31.47;;;18.70;;
26277;SDS011;14000;52.056;8.510;2023-04-15T06:21:34;29.73;;;18.53;;
26277;SDS011;14000;52.056;8.510;2023-04-15T06:24:00;32.07;;;19.77;;
26277;SDS011;14000;52.056;8.510;2023-04-15T06:26:27;33.43;;;18.57;;
26277;SDS011;14000;52.056;8.510;2023-04-15T06:28:52;31.93;;;19.13;;
26277;SDS011;14000;52.056;8.510;2023-04-15T06:31:18;35.43;;;19.17;;
26277;SDS011;14000;52.056;8.510;2023-04-15T06:33:44;39.37;;;22.10;;
26277;SDS011;14000;52.056;8.510;2023-04-15T06:36:10;34.53;;;18.97;;
26277;SDS011;14000;52.056;8.510;2023-04-15T06:38:36;42.67;;;23.97;;
26277;SDS011;14000;52.056;8.510;2023-04-15T06:41:02;40.17;;;21.70;;
26277;SDS011;14000;52.056;8.510;2023-04-15T06:43:28;45.83;;;25.93;;
26277;SDS011;14000;52.056;8.510;2023-04-15T06:45:54;43.50;;;24.80;;
26277;SDS011;14000;52.056;8.510;2023-04-15T06:48:20;48.67;;;28.83;;
26277;SDS011;14000;52.056;8.510;2023-04-15T06:50:46;57.03;;;33.23;;
26277;SDS011;14000;52.056;8.510;2023-04-15T06:53:13;59.13;;;32.40;;
26277;SDS011;14000;52.056;8.510;2023-04-15T06:55:39;62.77;;;34.03;;
26277;SDS011;14000;52.056;8.510;2023-04-15T06:58:05;64.10;;;34.93;;
26277;SDS011;14000;52.056;8.510;2023-04-15T07:00:31;72.27;;;37.47;;
26277;SDS011;14000;52.056;8.510;2023-04-15T07:02:58;84.63;;;43.40;;
26277;SDS011;14000;52.056;8.510;2023-04-15T07:05:27;76.67;;;39.67;;
26277;SDS011;14000;52.056;8.510;2023-04-15T07:07:54;81.57;;;41.33;;
26277;SDS011;14000;52.056;8.510;2023-04-15T07:10:20;68.20;;;35.53;;
26277;SDS011;14000;52.056;8.510;2023-04-15T07:12:47;69.57;;;35.83;;
26277;SDS011;14000;52.056;8.510;2023-04-15T07:15:13;60.93;;;32.90;;
26277;SDS011;14000;52.056;8.510;2023-04-15T07:17:39;55.60;;;29.13;;
26277;SDS011;14000;52.056;8.510;2023-04-15T07:20:07;59.40;;;31.97;;
26277;SDS011;14000;52.056;8.510;2023-04-15T07:22:33;50.63;;;26.97;;
26277;SDS011;14000;52.056;8.510;2023-04-15T07:24:59;56.97;;;28.80;;
26277;SDS011;14000;52.056;8.510;2023-04-15T07:27:25;50.57;;;27.03;;
26277;SDS011;14000;52.056;8.510;2023-04-15T07:29:51;54.67;;;26.10;;
26277;SDS011;14000;52.056;8.510;2023-04-15T07:32:17;53.77;;;28.53;;
26277;SDS011;14000;52.056;8.510;2023-04-15T07:34:43;50.90;;;26.57;;
26277;SDS011;14000;52.056;8.510;2023-04-15T07:37:09;52.30;;;26.90;;
26277;SDS011;14000;52.056;8.510;2023-04-15T07:39:35;50.93;;;27.13;;
26277;SDS011;14000;52.056;8.510;2023-04-15T07:42:01;55.20;;;27.80;;
26277;SDS011;14000;52.056;8.510;2023-04-15T07:44:28;48.57;;;24.13;;
26277;SDS011;14000;52.056;8.510;2023-04-15T07:46:54;53.53;;;27.00;;
26277;SDS011;14000;52.056;8.510;2023-04-15T07:49:20;55.30;;;27.33;;
26277;SDS011;14000;52.056;8.510;2023-04-15T07:51:46;54.80;;;26.87;;
26277;SDS011;14000;52.056;8.510;2023-04-15T07:54:13;49.30;;;26.57;;
26277;SDS011;14000;52.056;8.510;2023-04-15T07:56:39;46.60;;;25.00;;
26277;SDS011;14000;52.056;8.510;2023-04-15T07:59:05;43.07;;;23.53;;
26277;SDS011;14000;52.056;8.510;2023-04-15T08:01:31;41.93;;;22.87;;
26277;SDS011;14000;52.056;8.510;2023-04-15T08:03:57;50.33;;;25.40;;
26277;SDS011;14000;52.056;8.510;2023-04-15T08:06:23;43.67;;;21.90;;
26277;SDS011;14000;52.056;8.510;2023-04-15T08:08:49;44.63;;;23.07;;
26277;SDS011;14000;52.056;8.510;2023-04-15T08:11:15;43.37;;;23.87;;
26277;SDS011;14000;52.056;8.510;2023-04-15T08:13:41;44.60;;;23.90;;
26277;SDS011;14000;52.056;8.510;2023-04-15T08:16:14;47.90;;;24.37;;
26277;SDS011;14000;52.056;8.510;2023-04-15T08:18:42;52.83;;;24.20;;
26277;SDS011;14000;52.056;8.510;2023-04-15T08:21:09;53.07;;;26.53;;
26277;SDS011;14000;52.056;8.510;2023-04-15T08:23:35;54.47;;;28.00;;
26277;SDS011;14000;52.056;8.510;2023-04-15T08:26:01;55.10;;;26.43;;
26277;SDS011;14000;52.056;8.510;2023-04-15T08:28:27;45.80;;;24.83;;
26277;SDS011;14000;52.056;8.510;2023-04-15T08:30:53;43.47;;;21.90;;
26277;SDS011;14000;52.056;8.510;2023-04-15T08:33:19;42.27;;;23.50;;
26277;SDS011;14000;52.056;8.510;2023-04-15T08:35:45;43.87;;;23.13;;
26277;SDS011;14000;52.056;8.510;2023-04-15T08:38:11;47.60;;;24.10;;
26277;SDS011;14000;52.056;8.510;2023-04-15T08:40:40;43.57;;;23.20;;
26277;SDS011;14000;52.056;8.510;2023-04-15T08:43:08;48.30;;;25.30;;
26277;SDS011;14000;52.056;8.510;2023-04-15T08:45:40;40.97;;;22.70;;
26277;SDS011;14000;52.056;8.510;2023-04-15T08:48:06;40.50;;;21.73;;
26277;SDS011;14000;52.056;8.510;2023-04-15T08:50:38;42.27;;;21.30;;
26277;SDS011;14000;52.056;8.510;2023-04-15T08:53:05;40.70;;;21.17;;
26277;SDS011;14000;52.056;8.510;2023-04-15T08:55:32;41.10;;;21.83;;
26277;SDS011;14000;52.056;8.510;2023-04-15T08:58:00;40.47;;;21.20;;
26277;SDS011;14000;52.056;8.510;2023-04-15T09:00:27;44.73;;;22.30;;
26277;SDS011;14000;52.056;8.510;2023-04-15T09:02:54;38.93;;;19.70;;
26277;SDS011;14000;52.056;8.510;2023-04-15T09:05:20;33.33;;;18.40;;
26277;SDS011;14000;52.056;8.510;2023-04-15T09:07:47;34.63;;;19.30;;
26277;SDS011;14000;52.056;8.510;2023-04-15T09:10:14;36.97;;;19.17;;
26277;SDS011;14000;52.056;8.510;2023-04-15T09:12:40;32.03;;;18.50;;
26277;SDS011;14000;52.056;8.510;2023-04-15T09:15:05;36.23;;;19.47;;
26277;SDS011;14000;52.056;8.510;2023-04-15T09:17:36;33.57;;;18.60;;
26277;SDS011;14000;52.056;8.510;2023-04-15T09:20:08;36.00;;;19.47;;
26277;SDS011;14000;52.056;8.510;2023-04-15T09:22:35;33.00;;;19.13;;
26277;SDS011;14000;52.056;8.510;2023-04-15T09:25:02;37.57;;;20.60;;
26277;SDS011;14000;52.056;8.510;2023-04-15T09:27:28;33.90;;;17.93;;
26277;SDS011;14000;52.056;8.510;2023-04-15T09:29:53;35.90;;;19.33;;
26277;SDS011;14000;52.056;8.510;2023-04-15T09:32:19;37.83;;;19.20;;
26277;SDS011;14000;52.056;8.510;2023-04-15T09:34:48;35.77;;;17.70;;
26277;SDS011;14000;52.056;8.510;2023-04-15T09:37:14;33.73;;;17.37;;
26277;SDS011;14000;52.056;8.510;2023-04-15T09:39:50;36.03;;;18.37;;
26277;SDS011;14000;52.056;8.510;2023-04-15T09:42:16;35.37;;;17.57;;
26277;SDS011;14000;52.056;8.510;2023-04-15T09:44:48;32.13;;;16.77;;
26277;SDS011;14000;52.056;8.510;2023-04-15T09:47:30;31.93;;;16.27;;
26277;SDS011;14000;52.056;8.510;2023-04-15T09:49:57;33.07;;;17.20;;
26277;SDS011;14000;52.056;8.510;2023-04-15T09:52:24;28.27;;;15.20;;
26277;SDS011;14000;52.056;8.510;2023-04-15T09:54:51;28.20;;;15.17;;
26277;SDS011;14000;52.056;8.510;2023-04-15T09:57:21;23.70;;;13.17;;
26277;SDS011;14000;52.056;8.510;2023-04-15T09:59:48;26.00;;;13.87;;
26277;SDS011;14000;52.056;8.510;2023-04-15T10:02:14;25.03;;;13.83;;
26277;SDS011;14000;52.056;8.510;2023-04-15T10:04:42;28.50;;;13.90;;
26277;SDS011;14000;52.056;8.510;2023-04-15T10:07:09;26.93;;;13.83;;
26277;SDS011;14000;52.056;8.510;2023-04-15T10:09:39;24.53;;;13.63;;
26277;SDS011;14000;52.056;8.510;2023-04-15T10:12:06;26.30;;;14.47;;
26277;SDS011;14000;52.056;8.510;2023-04-15T10:14:35;27.47;;;14.03;;
26277;SDS011;14000;52.056;8.510;2023-04-15T10:17:02;24.00;;;13.30;;
26277;SDS011;14000;52.056;8.510;2023-04-15T10:19:30;25.83;;;14.60;;
26277;SDS011;14000;52.056;8.510;2023-04-15T10:21:58;26.50;;;14.50;;
26277;SDS011;14000;52.056;8.510;2023-04-15T10:24:24;25.73;;;13.40;;
26277;SDS011;14000;52.056;8.510;2023-04-15T10:26:51;26.47;;;13.73;;
26277;SDS011;14000;52.056;8.510;2023-04-15T10:29:18;21.60;;;11.80;;
26277;SDS011;14000;52.056;8.510;2023-04-15T10:31:44;22.57;;;13.33;;
26277;SDS011;14000;52.056;8.510;2023-04-15T10:34:11;21.43;;;12.43;;
26277;SDS011;14000;52.056;8.510;2023-04-15T10:36:37;23.33;;;12.77;;
26277;SDS011;14000;52.056;8.510;2023-04-15T10:39:37;22.20;;;12.03;;
26277;SDS011;14000;52.056;8.510;2023-04-15T10:42:08;22.83;;;12.37;;
26277;SDS011;14000;52.056;8.510;2023-04-15T10:44:36;20.93;;;11.90;;
26277;SDS011;14000;52.056;8.510;2023-04-15T10:47:21;24.43;;;12.83;;
26277;SDS011;14000;52.056;8.510;2023-04-15T10:49:47;22.43;;;12.53;;
26277;SDS011;14000;52.056;8.510;2023-04-15T10:52:14;21.73;;;11.97;;
26277;SDS011;14000;52.056;8.510;2023-04-15T10:54:41;22.20;;;12.20;;
26277;SDS011;14000;52.056;8.510;2023-04-15T10:57:08;22.93;;;11.67;;
26277;SDS011;14000;52.056;8.510;2023-04-15T10:59:59;20.30;;;11.87;;
26277;SDS011;14000;52.056;8.510;2023-04-15T11:03:04;26.30;;;13.50;;
26277;SDS011;14000;52.056;8.510;2023-04-15T11:08:06;21.47;;;12.13;;
26277;SDS011;14000;52.056;8.510;2023-04-15T11:13:01;20.63;;;12.93;;
26277;SDS011;14000;52.056;8.510;2023-04-15T11:15:36;26.73;;;14.00;;
26277;SDS011;14000;52.056;8.510;2023-04-15T11:18:13;23.90;;;13.27;;
26277;SDS011;14000;52.056;8.510;2023-04-15T11:20:43;26.97;;;15.33;;
26277;SDS011;14000;52.056;8.510;2023-04-15T11:23:14;25.97;;;15.00;;
26277;SDS011;14000;52.056;8.510;2023-04-15T11:25:42;23.77;;;13.53;;
26277;SDS011;14000;52.056;8.510;2023-04-15T11:28:08;22.17;;;13.70;;
26277;SDS011;14000;52.056;8.510;2023-04-15T11:30:36;26.60;;;14.30;;
26277;SDS011;14000;52.056;8.510;2023-04-15T11:33:03;26.77;;;15.77;;
26277;SDS011;14000;52.056;8.510;2023-04-15T11:35:33;26.80;;;15.70;;
26277;SDS011;14000;52.056;8.510;2023-04-15T11:38:03;21.70;;;13.63;;
26277;SDS011;14000;52.056;8.510;2023-04-15T11:40:30;21.90;;;13.10;;
26277;SDS011;14000;52.056;8.510;2023-04-15T11:43:06;22.20;;;13.53;;
26277;SDS011;14000;52.056;8.510;2023-04-15T11:45:33;23.90;;;13.60;;
26277;SDS011;14000;52.056;8.510;2023-04-15T11:48:06;21.07;;;12.77;;
26277;SDS011;14000;52.056;8.510;2023-04-15T11:50:33;24.00;;;13.67;;
26277;SDS011;14000;52.056;8.510;2023-04-15T11:53:00;20.97;;;13.50;;
26277;SDS011;14000;52.056;8.510;2023-04-15T11:55:28;24.40;;;14.27;;
26277;SDS011;14000;52.056;8.510;2023-04-15T12:00:54;24.03;;;14.03;;
26277;SDS011;14000;52.056;8.510;2023-04-15T12:03:28;21.20;;;12.50;;
26277;SDS011;14000;52.056;8.510;2023-04-15T12:06:01;23.03;;;12.90;;
26277;SDS011;14000;52.056;8.510;2023-04-15T12:11:48;22.07;;;13.70;;
26277;SDS011;14000;52.056;8.510;2023-04-15T12:14:25;23.03;;;14.70;;
26277;SDS011;14000;52.056;8.510;2023-04-15T12:17:05;22.40;;;14.27;;
26277;SDS011;14000;52.056;8.510;2023-04-15T12:19:34;19.47;;;11.30;;
26277;SDS011;14000;52.056;8.510;2023-04-15T12:22:02;20.97;;;12.13;;
26277;SDS011;14000;52.056;8.510;2023-04-15T12:24:33;20.20;;;11.93;;
26277;SDS011;14000;52.056;8.510;2023-04-15T12:27:03;19.27;;;11.53;;
26277;SDS011;14000;52.056;8.510;2023-04-15T12:29:34;20.43;;;11.97;;
26277;SDS011;14000;52.056;8.510;2023-04-15T12:32:08;18.27;;;10.83;;
26277;SDS011;14000;52.056;8.510;2023-04-15T12:34:38;18.70;;;10.03;;
26277;SDS011;14000;52.056;8.510;2023-04-15T12:37:10;19.23;;;11.33;;
26277;SDS011;14000;52.056;8.510;2023-04-15T12:39:43;17.50;;;10.53;;
26277;SDS011;14000;52.056;8.510;2023-04-15T12:42:10;17.27;;;10.17;;
26277;SDS011;14000;52.056;8.510;2023-04-15T12:44:36;17.20;;;10.63;;
26277;SDS011;14000;52.056;8.510;2023-04-15T12:47:03;18.67;;;10.80;;
26277;SDS011;14000;52.056;8.510;2023-04-15T12:49:29;18.23;;;9.63;;
26277;SDS011;14000;52.056;8.510;2023-04-15T12:51:56;15.17;;;9.37;;
26277;SDS011;14000;52.056;8.510;2023-04-15T12:54:26;16.80;;;10.30;;
26277;SDS011;14000;52.056;8.510;2023-04-15T12:56:53;19.67;;;11.20;;
26277;SDS011;14000;52.056;8.510;2023-04-15T12:59:19;17.40;;;10.50;;
26277;SDS011;14000;52.056;8.510;2023-04-15T13:01:46;16.33;;;10.20;;
26277;SDS011;14000;52.056;8.510;2023-04-15T13:04:13;17.90;;;9.80;;
26277;SDS011;14000;52.056;8.510;2023-04-15T13:06:39;15.23;;;9.10;;
26277;SDS011;14000;52.056;8.510;2023-04-15T13:09:05;16.50;;;10.50;;
26277;SDS011;14000;52.056;8.510;2023-04-15T13:11:31;18.23;;;10.50;;
26277;SDS011;14000;52.056;8.510;2023-04-15T13:14:01;16.10;;;10.17;;
26277;SDS011;14000;52.056;8.510;2023-04-15T13:16:28;18.27;;;11.13;;
26277;SDS011;14000;52.056;8.510;2023-04-15T13:18:54;19.53;;;11.43;;
26277;SDS011;14000;52.056;8.510;2023-04-15T13:21:20;20.00;;;12.03;;
26277;SDS011;14000;52.056;8.510;2023-04-15T13:23:46;17.10;;;11.20;;
26277;SDS011;14000;52.056;8.510;2023-04-15T13:26:13;22.83;;;13.53;;
26277;SDS011;14000;52.056;8.510;2023-04-15T13:28:39;19.53;;;12.80;;
26277;SDS011;14000;52.056;8.510;2023-04-15T13:31:05;22.50;;;14.40;;
26277;SDS011;14000;52.056;8.510;2023-04-15T13:33:30;21.57;;;13.73;;
26277;SDS011;14000;52.056;8.510;2023-04-15T13:35:56;24.80;;;16.07;;
26277;SDS011;14000;52.056;8.510;2023-04-15T13:38:23;32.27;;;17.50;;
26277;SDS011;14000;52.056;8.510;2023-04-15T13:40:49;25.27;;;16.60;;
26277;SDS011;14000;52.056;8.510;2023-04-15T13:43:15;29.67;;;18.27;;
26277;SDS011;14000;52.056;8.510;2023-04-15T13:45:41;24.17;;;15.50;;
26277;SDS011;14000;52.056;8.510;2023-04-15T13:48:07;25.83;;;16.13;;
26277;SDS011;14000;52.056;8.510;2023-04-15T13:50:33;32.63;;;20.00;;
26277;SDS011;14000;52.056;8.510;2023-04-15T13:52:59;28.27;;;17.80;;
26277;SDS011;14000;52.056;8.510;2023-04-15T13:55:25;33.53;;;19.37;;
26277;SDS011;14000;52.056;8.510;2023-04-15T13:57:51;32.67;;;20.50;;
26277;SDS011;14000;52.056;8.510;2023-04-15T14:00:16;28.13;;;17.90;;
26277;SDS011;14000;52.056;8.510;2023-04-15T14:02:42;32.93;;;20.67;;
26277;SDS011;14000;52.056;8.510;2023-04-15T14:05:08;38.20;;;22.87;;
26277;SDS011;14000;52.056;8.510;2023-04-15T14:07:35;35.53;;;20.10;;
26277;SDS011;14000;52.056;8.510;2023-04-15T14:10:01;38.67;;;24.27;;
26277;SDS011;14000;52.056;8.510;2023-04-15T14:12:28;45.23;;;26.23;;
26277;SDS011;14000;52.056;8.510;2023-04-15T14:14:53;38.00;;;24.20;;
26277;SDS011;14000;52.056;8.510;2023-04-15T14:17:19;44.63;;;26.57;;
26277;SDS011;14000;52.056;8.510;2023-04-15T14:19:45;38.67;;;23.90;;
26277;SDS011;14000;52.056;8.510;2023-04-15T14:22:11;45.93;;;26.10;;
26277;SDS011;14000;52.056;8.510;2023-04-15T14:24:36;39.40;;;23.83;;
26277;SDS011;14000;52.056;8.510;2023-04-15T14:27:02;38.30;;;23.77;;
26277;SDS011;14000;52.056;8.510;2023-04-15T14:29:28;40.93;;;24.67;;
26277;SDS011;14000;52.056;8.510;2023-04-15T14:31:53;40.07;;;24.60;;
26277;SDS011;14000;52.056;8.510;2023-04-15T14:34:21;46.50;;;26.60;;